createdAt,value
2018-05-23T00:01:40.882Z,0.00
2018-05-23T00:04:22.921Z,0.00
2018-05-23T00:05:24.846Z,0.00
2018-05-23T00:06:22.732Z,0.00
2018-05-23T00:07:25.075Z,0.00
2018-05-23T00:08:22.592Z,0.00
2018-05-23T00:10:49.884Z,0.00
2018-05-23T00:11:49.888Z,0.00
2018-05-23T00:12:49.735Z,0.00
2018-05-23T00:15:31.929Z,0.00
2018-05-23T00:18:13.893Z,0.00
2018-05-23T00:27:20.775Z,0.00
2018-05-23T00:28:20.698Z,0.00
2018-05-23T00:29:20.598Z,0.00
2018-05-23T00:30:20.656Z,0.00
2018-05-23T00:31:20.431Z,0.00
2018-05-23T00:32:22.464Z,0.00
2018-05-23T00:46:35.911Z,0.00
2018-05-23T00:47:35.748Z,0.00
2018-05-23T00:48:35.773Z,0.00
2018-05-23T00:49:35.582Z,0.00
2018-05-23T00:50:35.595Z,0.00
2018-05-23T00:51:35.536Z,0.00
2018-05-23T00:52:35.398Z,0.00
2018-05-23T00:53:35.285Z,0.00
2018-05-23T00:54:35.323Z,0.00
2018-05-23T00:55:35.137Z,0.00
2018-05-23T00:56:35.119Z,0.00
2018-05-23T00:57:34.962Z,0.00
2018-05-23T00:58:34.914Z,0.00
2018-05-23T00:59:34.805Z,0.00
2018-05-23T01:00:34.868Z,0.00
2018-05-23T01:01:34.652Z,0.00
2018-05-23T01:04:16.892Z,0.00
2018-05-23T01:05:16.896Z,0.00
2018-05-23T01:06:16.756Z,0.00
2018-05-23T01:07:16.787Z,0.00
2018-05-23T01:08:16.576Z,0.00
2018-05-23T01:09:16.573Z,0.00
2018-05-23T01:10:16.432Z,0.00
2018-05-23T01:11:16.406Z,0.00
2018-05-23T01:12:16.267Z,0.00
2018-05-23T01:13:16.280Z,0.00
2018-05-23T01:14:16.117Z,0.00
2018-05-23T01:15:16.095Z,0.00
2018-05-23T01:16:15.982Z,0.00
2018-05-23T01:17:15.948Z,0.00
2018-05-23T01:18:15.798Z,0.00
2018-05-23T01:19:15.811Z,0.00
2018-05-23T01:20:15.654Z,0.00
2018-05-23T01:21:15.625Z,0.00
2018-05-23T01:22:15.485Z,0.00
2018-05-23T01:23:15.670Z,0.00
2018-05-23T01:24:15.329Z,0.00
2018-05-23T01:25:15.344Z,0.00
2018-05-23T01:26:15.175Z,0.00
2018-05-23T01:27:15.183Z,0.00
2018-05-23T01:28:15.015Z,0.00
2018-05-23T01:29:15.055Z,0.00
2018-05-23T01:30:14.858Z,0.00
2018-05-23T01:32:56.915Z,0.00
2018-05-23T01:35:38.907Z,0.00
2018-05-23T01:36:59.806Z,0.00
2018-05-23T01:37:38.799Z,0.00
2018-05-23T01:38:38.770Z,0.00
2018-05-23T01:39:38.602Z,0.00
2018-05-23T01:40:38.586Z,0.00
2018-05-23T01:41:38.454Z,0.00
2018-05-23T01:42:38.390Z,0.00
2018-05-23T01:43:38.288Z,0.00
2018-05-23T01:44:38.295Z,0.00
2018-05-23T01:45:38.122Z,0.00
2018-05-23T01:46:38.105Z,0.00
2018-05-23T01:47:37.963Z,0.00
2018-05-23T01:48:37.950Z,0.00
2018-05-23T01:49:37.807Z,0.00
2018-05-23T01:50:37.836Z,0.00
2018-05-23T01:51:37.648Z,0.00
2018-05-23T01:52:37.634Z,0.00
2018-05-23T01:53:37.538Z,0.00
2018-05-23T01:54:37.542Z,0.00
2018-05-23T01:55:37.344Z,0.00
2018-05-23T01:58:19.437Z,0.00
2018-05-23T02:01:18.897Z,0.00
2018-05-23T02:02:18.885Z,0.00
2018-05-23T02:03:18.744Z,0.00
2018-05-23T02:04:18.812Z,0.00
2018-05-23T02:05:18.581Z,0.00
2018-05-23T02:06:18.601Z,0.00
2018-05-23T02:07:18.430Z,0.00
2018-05-23T02:08:18.394Z,0.00
2018-05-23T02:09:18.282Z,0.00
2018-05-23T02:10:18.294Z,0.00
2018-05-23T02:11:18.109Z,0.00
2018-05-23T02:12:18.043Z,0.00
2018-05-23T02:13:17.956Z,0.00
2018-05-23T02:14:17.912Z,0.00
2018-05-23T02:15:17.813Z,0.00
2018-05-23T02:16:17.832Z,0.00
2018-05-23T02:17:17.659Z,0.00
2018-05-23T02:18:17.637Z,0.00
2018-05-23T02:19:17.483Z,0.00
2018-05-23T02:20:17.489Z,0.00
2018-05-23T02:21:17.334Z,0.00
2018-05-23T02:22:17.353Z,0.00
2018-05-23T02:23:17.177Z,0.00
2018-05-23T02:24:17.158Z,0.00
2018-05-23T02:25:17.035Z,0.00
2018-05-23T02:26:16.973Z,0.00
2018-05-23T02:27:16.854Z,0.00
2018-05-23T02:28:16.878Z,0.00
2018-05-23T02:29:16.702Z,0.00
2018-05-23T02:30:16.735Z,0.00
2018-05-23T02:31:16.543Z,0.00
2018-05-23T02:33:58.430Z,0.00
2018-05-23T02:34:58.398Z,0.00
2018-05-23T02:35:58.288Z,0.00
2018-05-23T02:36:58.312Z,0.00
2018-05-23T02:37:58.100Z,0.00
2018-05-23T02:38:58.119Z,0.00
2018-05-23T02:39:57.943Z,0.00
2018-05-23T02:40:57.975Z,0.00
2018-05-23T02:41:57.823Z,0.00
2018-05-23T02:42:57.831Z,0.00
2018-05-23T02:43:57.631Z,0.00
2018-05-23T02:44:57.637Z,0.00
2018-05-23T02:45:57.501Z,0.00
2018-05-23T02:46:57.481Z,0.00
2018-05-23T02:47:57.314Z,0.00
2018-05-23T02:48:57.356Z,0.00
2018-05-23T02:49:57.165Z,0.00
2018-05-23T02:50:57.194Z,0.00
2018-05-23T02:51:57.015Z,0.00
2018-05-23T02:52:56.983Z,0.00
2018-05-23T02:53:56.856Z,0.00
2018-05-23T02:54:56.897Z,0.00
2018-05-23T02:55:56.696Z,0.00
2018-05-23T02:56:57.753Z,0.00
2018-05-23T02:57:56.532Z,0.00
2018-05-23T02:58:56.506Z,0.00
2018-05-23T02:59:56.393Z,0.00
2018-05-23T03:00:56.422Z,0.00
2018-05-23T03:01:56.251Z,0.00
2018-05-23T03:02:56.229Z,0.00
2018-05-23T03:03:56.065Z,0.00
2018-05-23T03:06:37.978Z,0.00
2018-05-23T03:07:39.876Z,0.00
2018-05-23T03:08:37.781Z,0.00
2018-05-23T03:09:40.125Z,0.00
2018-05-23T03:10:37.627Z,0.00
2018-05-23T03:11:40.359Z,0.00
2018-05-23T03:12:37.505Z,0.00
2018-05-23T03:15:30.926Z,0.00
2018-05-23T03:16:30.925Z,0.00
2018-05-23T03:17:30.788Z,0.00
2018-05-23T03:18:30.729Z,0.00
2018-05-23T03:19:30.622Z,0.00
2018-05-23T03:34:59.754Z,5.63
2018-05-23T03:35:59.552Z,5.63
2018-05-23T03:38:41.490Z,5.63
2018-05-23T03:41:23.436Z,5.63
2018-05-23T03:42:23.410Z,11.25
2018-05-23T03:43:23.302Z,11.25
2018-05-23T03:44:23.338Z,11.25
2018-05-23T03:45:23.128Z,11.25
2018-05-23T03:46:23.142Z,11.25
2018-05-23T03:47:22.967Z,11.25
2018-05-23T03:48:22.977Z,11.25
2018-05-23T03:49:22.811Z,16.88
2018-05-23T03:50:22.859Z,16.88
2018-05-23T03:51:22.655Z,16.88
2018-05-23T03:52:22.658Z,16.88
2018-05-23T03:53:22.557Z,16.88
2018-05-23T03:54:22.477Z,16.88
2018-05-23T03:55:22.349Z,16.88
2018-05-23T03:56:22.382Z,22.50
2018-05-23T03:57:22.182Z,22.50
2018-05-23T03:58:22.225Z,22.50
2018-05-23T03:59:22.030Z,22.50
2018-05-23T04:00:21.990Z,22.50
2018-05-23T04:01:21.871Z,28.13
2018-05-23T04:02:21.907Z,28.13
2018-05-23T04:03:21.734Z,28.13
2018-05-23T04:04:21.745Z,28.13
2018-05-23T04:05:21.558Z,33.75
2018-05-23T04:06:21.523Z,33.75
2018-05-23T04:07:21.403Z,33.75
2018-05-23T04:08:21.438Z,33.75
2018-05-23T04:09:21.264Z,33.75
2018-05-23T04:10:21.253Z,39.38
2018-05-23T04:11:21.089Z,39.38
2018-05-23T04:12:21.051Z,39.38
2018-05-23T04:13:20.933Z,45.00
2018-05-23T04:14:21.007Z,45.00
2018-05-23T04:15:20.784Z,45.00
2018-05-23T04:16:20.782Z,45.00
2018-05-23T04:17:20.621Z,50.63
2018-05-23T04:18:20.587Z,50.63
2018-05-23T04:19:20.480Z,50.63
2018-05-23T04:20:20.498Z,50.63
2018-05-23T04:21:20.309Z,50.63
2018-05-23T04:22:20.313Z,50.63
2018-05-23T04:23:20.161Z,50.63
2018-05-23T04:24:20.146Z,50.63
2018-05-23T04:25:20.010Z,50.63
2018-05-23T04:26:20.016Z,50.63
2018-05-23T04:27:19.839Z,50.63
2018-05-23T04:28:19.824Z,56.25
2018-05-23T04:29:19.687Z,56.25
2018-05-23T04:30:20.688Z,56.25
2018-05-23T04:31:19.529Z,56.25
2018-05-23T04:34:01.456Z,61.88
2018-05-23T04:35:02.503Z,61.88
2018-05-23T04:36:01.321Z,67.50
2018-05-23T04:38:43.465Z,67.50
2018-05-23T04:39:48.583Z,67.50
2018-05-23T04:40:43.317Z,67.50
2018-05-23T04:41:43.263Z,67.50
2018-05-23T04:42:43.140Z,67.50
2018-05-23T04:43:43.176Z,67.50
2018-05-23T04:44:42.987Z,67.50
2018-05-23T04:45:43.020Z,67.50
2018-05-23T04:46:42.844Z,67.50
2018-05-23T04:49:24.962Z,73.13
2018-05-23T04:50:25.018Z,73.13
2018-05-23T04:51:24.815Z,73.13
2018-05-23T04:52:24.806Z,73.13
2018-05-23T04:53:24.643Z,73.13
2018-05-23T04:54:24.575Z,73.13
2018-05-23T04:55:24.511Z,73.13
2018-05-23T04:56:25.470Z,73.13
2018-05-23T04:57:24.328Z,73.13
2018-05-23T04:58:24.329Z,73.13
2018-05-23T04:59:24.194Z,73.13
2018-05-23T05:02:06.488Z,78.75
2018-05-23T05:03:06.455Z,78.75
2018-05-23T05:04:06.308Z,78.75
2018-05-23T05:05:06.350Z,78.75
2018-05-23T05:06:06.167Z,78.75
2018-05-23T05:07:06.168Z,78.75
2018-05-23T05:08:06.000Z,84.38
2018-05-23T05:30:29.072Z,118.13
2018-05-23T05:31:27.939Z,118.13
2018-05-23T05:32:27.936Z,118.13
2018-05-23T05:33:27.792Z,123.75
2018-05-23T05:34:27.742Z,129.38
2018-05-23T05:35:27.624Z,135.00
2018-05-23T05:36:27.649Z,140.63
2018-05-23T05:37:27.479Z,146.25
2018-05-23T05:38:27.455Z,151.88
2018-05-23T05:39:27.321Z,157.50
2018-05-23T05:40:27.261Z,157.50
2018-05-23T05:41:27.152Z,157.50
2018-05-23T05:42:27.218Z,163.13
2018-05-23T05:43:26.997Z,163.13
2018-05-23T05:44:26.983Z,163.13
2018-05-23T05:45:26.844Z,163.13
2018-05-23T05:48:08.986Z,174.38
2018-05-23T05:49:09.021Z,168.75
2018-05-23T05:50:08.817Z,168.75
2018-05-23T05:52:50.999Z,174.38
2018-05-23T05:53:53.598Z,174.38
2018-05-23T05:54:50.831Z,180.00
2018-05-23T05:57:36.977Z,191.25
2018-05-23T05:58:58.948Z,191.25
2018-05-23T05:59:36.847Z,196.88
2018-05-23T06:00:36.818Z,202.50
2018-05-23T06:01:36.668Z,202.50
2018-05-23T06:02:36.634Z,208.13
2018-05-23T06:03:36.524Z,208.13
2018-05-23T06:04:36.560Z,213.75
2018-05-23T06:05:36.344Z,219.38
2018-05-23T06:06:36.359Z,225.00
2018-05-23T06:07:36.190Z,225.00
2018-05-23T06:10:01.097Z,230.63
2018-05-23T06:21:12.421Z,286.88
2018-05-23T06:22:12.312Z,292.50
2018-05-23T06:23:12.298Z,298.13
2018-05-23T06:24:12.139Z,298.13
2018-05-23T06:25:13.159Z,303.75
2018-05-23T06:26:12.016Z,315.00
2018-05-23T06:27:12.016Z,320.63
2018-05-23T06:28:11.813Z,326.25
2018-05-23T06:29:11.813Z,326.25
2018-05-23T06:30:11.683Z,326.25
2018-05-23T06:31:11.667Z,331.88
2018-05-23T06:32:11.526Z,326.25
2018-05-23T06:33:11.536Z,326.25
2018-05-23T06:34:11.350Z,320.63
2018-05-23T06:35:11.388Z,320.63
2018-05-23T06:36:11.196Z,331.88
2018-05-23T06:38:53.535Z,354.38
2018-05-23T06:39:55.930Z,365.63
2018-05-23T06:40:53.423Z,376.88
2018-05-23T06:41:55.255Z,382.50
2018-05-23T06:42:54.090Z,388.13
2018-05-23T06:45:39.514Z,399.38
2018-05-23T06:46:39.473Z,399.38
2018-05-23T06:47:39.337Z,405.00
2018-05-23T06:48:39.296Z,405.00
2018-05-23T06:49:39.200Z,410.63
2018-05-23T06:50:39.246Z,416.25
2018-05-23T06:51:39.023Z,416.25
2018-05-23T06:52:39.049Z,416.25
2018-05-23T06:53:38.874Z,416.25
2018-05-23T06:54:38.789Z,416.25
2018-05-23T06:57:24.523Z,427.50
2018-05-23T06:58:24.421Z,427.50
2018-05-23T06:59:24.340Z,433.13
2018-05-23T07:00:24.334Z,427.50
2018-05-23T07:01:24.185Z,433.13
2018-05-23T07:02:24.259Z,427.50
2018-05-23T07:03:24.036Z,427.50
2018-05-23T07:06:23.993Z,444.38
2018-05-23T07:07:25.020Z,455.63
2018-05-23T07:08:23.844Z,472.50
2018-05-23T07:09:23.858Z,506.25
2018-05-23T07:10:23.701Z,534.38
2018-05-23T07:13:06.029Z,579.38
2018-05-23T07:14:05.981Z,596.25
2018-05-23T07:15:05.848Z,613.13
2018-05-23T07:16:05.882Z,630.00
2018-05-23T07:17:05.695Z,646.88
2018-05-23T07:18:05.796Z,658.13
2018-05-23T07:19:05.537Z,675.00
2018-05-23T07:20:05.459Z,686.25
2018-05-23T07:21:05.400Z,697.50
2018-05-23T07:22:05.309Z,703.13
2018-05-23T07:23:05.247Z,714.38
2018-05-23T07:24:05.259Z,725.63
2018-05-23T07:25:05.088Z,736.88
2018-05-23T07:26:05.134Z,742.50
2018-05-23T07:27:04.915Z,748.13
2018-05-23T07:28:05.901Z,759.38
2018-05-23T07:29:04.793Z,765.00
2018-05-23T07:31:47.028Z,770.63
2018-05-23T07:32:47.087Z,770.63
2018-05-23T07:33:46.879Z,781.88
2018-05-23T07:34:46.862Z,793.13
2018-05-23T07:35:46.705Z,804.38
2018-05-23T07:36:46.672Z,821.25
2018-05-23T07:37:46.561Z,843.75
2018-05-23T07:38:46.611Z,855.00
2018-05-23T07:39:46.464Z,860.63
2018-05-23T07:40:46.408Z,866.25
2018-05-23T07:41:46.266Z,866.25
2018-05-23T07:42:46.206Z,877.50
2018-05-23T07:43:46.159Z,883.13
2018-05-23T07:46:28.013Z,894.38
2018-05-23T07:47:28.003Z,894.38
2018-05-23T07:48:27.882Z,883.13
2018-05-23T07:49:27.807Z,888.75
2018-05-23T07:50:27.811Z,883.13
2018-05-23T07:51:27.727Z,871.88
2018-05-23T07:52:27.571Z,860.63
2018-05-23T07:53:27.577Z,866.25
2018-05-23T07:54:27.429Z,843.75
2018-05-23T07:55:27.447Z,843.75
2018-05-23T07:56:27.274Z,832.50
2018-05-23T07:57:27.248Z,832.50
2018-05-23T07:58:27.131Z,826.88
2018-05-23T07:59:27.067Z,832.50
2018-05-23T08:00:27.002Z,838.13
2018-05-23T08:01:26.982Z,860.63
2018-05-23T08:02:26.809Z,855.00
2018-05-23T08:05:09.044Z,967.50
2018-05-23T08:06:08.981Z,1023.75
2018-05-23T08:07:08.870Z,1063.13
2018-05-23T08:09:51.018Z,1186.88
2018-05-23T08:10:51.024Z,1333.13
2018-05-23T08:11:50.876Z,1271.25
2018-05-23T08:12:50.907Z,1338.75
2018-05-23T08:13:50.719Z,1361.25
2018-05-23T08:14:50.747Z,1428.75
2018-05-23T08:15:50.620Z,1558.13
2018-05-23T08:16:50.621Z,1513.13
2018-05-23T08:17:50.427Z,1344.38
2018-05-23T08:18:50.444Z,1625.63
2018-05-23T08:19:50.272Z,1670.63
2018-05-23T08:20:50.277Z,1816.88
2018-05-23T08:21:50.121Z,1906.88
2018-05-23T08:22:50.155Z,2131.88
2018-05-23T08:23:49.971Z,2148.75
2018-05-23T08:26:32.052Z,1490.63
2018-05-23T08:27:32.069Z,1265.63
2018-05-23T08:28:31.877Z,1158.75
2018-05-23T08:29:31.885Z,1091.25
2018-05-23T08:30:31.740Z,1080.00
2018-05-23T08:31:32.736Z,1080.00
2018-05-23T08:32:31.583Z,1119.38
2018-05-23T08:35:13.529Z,1147.50
2018-05-23T08:36:13.472Z,1164.38
2018-05-23T08:37:13.402Z,1203.75
2018-05-23T08:39:55.551Z,1254.38
2018-05-23T08:40:55.500Z,1282.50
2018-05-23T08:41:55.406Z,1361.25
2018-05-23T08:42:55.316Z,1473.75
2018-05-23T08:43:55.250Z,1704.38
2018-05-23T08:46:37.534Z,3065.63
2018-05-23T08:47:37.515Z,2660.63
2018-05-23T08:48:37.399Z,2385.00
2018-05-23T08:51:19.531Z,3313.13
2018-05-23T08:52:19.511Z,3611.25
2018-05-23T08:53:19.392Z,3324.38
2018-05-23T08:54:19.363Z,3206.25
2018-05-23T08:55:19.256Z,3043.13
2018-05-23T08:58:01.562Z,2880.00
2018-05-23T08:59:06.367Z,2863.13
2018-05-23T09:00:01.396Z,2880.00
2018-05-23T09:01:01.358Z,2930.63
2018-05-23T09:02:01.272Z,2998.13
2018-05-23T09:03:01.303Z,3031.88
2018-05-23T09:04:01.122Z,3093.75
2018-05-23T09:05:01.220Z,3105.00
2018-05-23T09:06:00.988Z,3099.38
2018-05-23T09:08:43.058Z,3110.63
2018-05-23T09:09:43.091Z,3110.63
2018-05-23T09:10:42.929Z,2970.00
2018-05-23T09:11:42.888Z,2913.75
2018-05-23T09:12:42.825Z,3026.25
2018-05-23T09:13:42.821Z,3172.50
2018-05-23T09:14:42.640Z,3538.13
2018-05-23T09:15:42.754Z,3172.50
2018-05-23T09:16:42.521Z,3616.88
2018-05-23T09:17:42.533Z,3577.50
2018-05-23T09:18:42.479Z,3757.50
2018-05-23T09:19:42.329Z,4078.13
2018-05-23T09:20:42.239Z,4066.88
2018-05-23T09:21:42.274Z,4089.38
2018-05-23T09:22:42.097Z,4275.00
2018-05-23T09:23:42.158Z,4100.63
2018-05-23T09:24:41.972Z,4027.50
2018-05-23T09:25:41.968Z,3993.75
2018-05-23T09:26:41.828Z,4134.38
2018-05-23T09:27:41.878Z,4095.00
2018-05-23T09:28:41.787Z,4111.88
2018-05-23T09:29:41.716Z,4168.13
2018-05-23T09:30:41.575Z,4246.88
2018-05-23T09:31:41.611Z,4246.88
2018-05-23T09:32:41.435Z,4033.13
2018-05-23T09:33:41.455Z,3836.25
2018-05-23T09:34:41.323Z,4207.50
2018-05-23T09:35:41.344Z,4021.88
2018-05-23T09:36:41.187Z,4179.38
2018-05-23T09:37:41.238Z,4438.13
2018-05-23T09:38:41.046Z,4325.63
2018-05-23T09:39:41.061Z,4449.38
2018-05-23T09:40:41.030Z,4320.00
2018-05-23T09:41:40.945Z,4336.88
2018-05-23T09:42:40.812Z,3678.75
2018-05-23T09:43:40.849Z,4308.75
2018-05-23T09:44:40.771Z,4320.00
2018-05-23T09:45:40.694Z,4201.88
2018-05-23T09:46:40.545Z,4095.00
2018-05-23T09:47:40.564Z,4291.88
2018-05-23T09:48:40.404Z,3667.50
2018-05-23T09:51:22.592Z,3487.50
2018-05-23T09:52:22.613Z,2908.13
2018-05-23T09:53:22.423Z,4314.38
2018-05-23T09:54:22.491Z,3566.25
2018-05-23T09:55:22.300Z,3988.13
2018-05-23T09:56:23.385Z,3718.13
2018-05-23T09:57:22.204Z,3279.38
2018-05-23T09:58:22.219Z,2520.00
2018-05-23T09:59:22.065Z,3093.75
2018-05-23T10:00:22.014Z,3408.75
2018-05-23T10:01:21.950Z,3060.00
2018-05-23T10:02:21.932Z,2868.75
2018-05-23T10:03:21.902Z,3099.38
2018-05-23T10:04:21.891Z,2576.25
2018-05-23T10:05:21.665Z,2711.25
2018-05-23T10:06:21.648Z,2536.88
2018-05-23T10:07:21.529Z,1800.00
2018-05-23T10:08:22.537Z,2092.50
2018-05-23T10:09:21.401Z,2160.00
2018-05-23T10:10:21.381Z,2013.75
2018-05-23T10:11:21.270Z,2165.63
2018-05-23T10:12:22.350Z,1867.50
2018-05-23T10:13:21.141Z,2008.13
2018-05-23T10:14:21.193Z,2126.25
2018-05-23T10:15:21.022Z,1974.38
2018-05-23T10:16:21.031Z,2092.50
2018-05-23T10:17:20.873Z,2025.00
2018-05-23T10:18:20.950Z,1816.88
2018-05-23T10:19:20.739Z,1811.25
2018-05-23T10:20:20.741Z,2064.38
2018-05-23T10:21:20.610Z,2311.88
2018-05-23T10:22:20.674Z,2424.38
2018-05-23T10:23:20.472Z,2137.50
2018-05-23T10:24:20.437Z,1861.88
2018-05-23T10:25:20.336Z,1816.88
2018-05-23T10:26:20.425Z,1811.25
2018-05-23T10:27:20.195Z,2081.25
2018-05-23T10:30:02.072Z,2013.75
2018-05-23T10:31:02.074Z,2244.38
2018-05-23T10:32:02.019Z,2424.38
2018-05-23T10:33:02.004Z,2401.88
2018-05-23T10:34:01.817Z,1923.75
2018-05-23T10:35:01.785Z,1614.38
2018-05-23T10:36:01.658Z,2199.38
2018-05-23T10:37:01.689Z,2047.50
2018-05-23T10:38:01.532Z,1608.75
2018-05-23T10:39:01.542Z,1738.13
2018-05-23T10:40:01.391Z,2396.25
2018-05-23T10:42:43.595Z,2137.50
2018-05-23T10:43:43.647Z,1721.25
2018-05-23T10:44:43.440Z,1732.50
2018-05-23T10:45:43.454Z,1411.88
2018-05-23T10:46:43.307Z,1344.38
2018-05-23T10:49:25.817Z,1406.25
2018-05-23T10:52:07.671Z,1141.88
2018-05-23T10:53:07.634Z,916.88
2018-05-23T10:54:07.472Z,866.25
2018-05-23T10:55:07.446Z,691.88
2018-05-23T10:56:07.305Z,613.13
2018-05-23T10:58:49.638Z,540.00
2018-05-23T10:59:49.559Z,551.25
2018-05-23T11:00:49.441Z,573.75
2018-05-23T11:01:49.466Z,601.88
2018-05-23T11:02:49.386Z,630.00
2018-05-23T11:03:49.327Z,675.00
2018-05-23T11:04:49.197Z,725.63
2018-05-23T11:07:31.121Z,798.75
2018-05-23T11:08:31.073Z,787.50
2018-05-23T11:09:30.986Z,765.00
2018-05-23T11:10:30.991Z,725.63
2018-05-23T11:11:30.803Z,680.63
2018-05-23T11:12:30.806Z,663.75
2018-05-23T11:13:30.655Z,691.88
2018-05-23T11:14:30.688Z,708.75
2018-05-23T11:15:30.503Z,708.75
2018-05-23T11:18:12.606Z,624.38
2018-05-23T11:19:12.635Z,573.75
2018-05-23T11:20:12.490Z,517.50
2018-05-23T11:21:12.417Z,466.88
2018-05-23T11:22:12.299Z,416.25
2018-05-23T11:23:12.329Z,376.88
2018-05-23T11:24:12.170Z,360.00
2018-05-23T11:25:12.168Z,348.75
2018-05-23T11:26:12.020Z,337.50
2018-05-23T11:27:12.058Z,326.25
2018-05-23T11:28:11.857Z,315.00
2018-05-23T11:30:54.134Z,292.50
2018-05-23T11:31:54.062Z,286.88
2018-05-23T11:32:53.960Z,281.25
2018-05-23T11:33:53.980Z,281.25
2018-05-23T11:34:53.812Z,275.63
2018-05-23T11:35:54.847Z,270.00
2018-05-23T11:36:53.652Z,270.00
2018-05-23T11:37:53.696Z,270.00
2018-05-23T11:38:53.509Z,270.00
2018-05-23T11:39:53.525Z,275.63
2018-05-23T11:40:53.347Z,281.25
2018-05-23T11:41:53.286Z,281.25
2018-05-23T11:42:53.208Z,281.25
2018-05-23T11:43:53.217Z,292.50
2018-05-23T11:44:53.065Z,292.50
2018-05-23T11:45:53.070Z,292.50
2018-05-23T11:46:52.905Z,298.13
2018-05-23T11:47:52.942Z,309.38
2018-05-23T11:48:52.743Z,309.38
2018-05-23T11:49:52.743Z,315.00
2018-05-23T11:50:52.607Z,315.00
2018-05-23T11:51:52.557Z,309.38
2018-05-23T11:52:52.456Z,309.38
2018-05-23T11:53:52.480Z,303.75
2018-05-23T11:54:52.279Z,309.38
2018-05-23T11:55:52.314Z,315.00
2018-05-23T11:56:52.138Z,320.63
2018-05-23T11:59:34.116Z,337.50
2018-05-23T12:00:34.136Z,343.13
2018-05-23T12:01:33.988Z,360.00
2018-05-23T12:02:34.000Z,371.25
2018-05-23T12:03:33.808Z,388.13
2018-05-23T12:04:33.791Z,410.63
2018-05-23T12:05:33.654Z,444.38
2018-05-23T12:06:33.603Z,472.50
2018-05-23T12:07:33.521Z,506.25
2018-05-23T12:08:33.535Z,551.25
2018-05-23T12:09:33.373Z,590.63
2018-05-23T12:10:33.395Z,635.63
2018-05-23T12:11:33.207Z,675.00
2018-05-23T12:12:33.141Z,714.38
2018-05-23T12:13:33.056Z,748.13
2018-05-23T12:16:15.147Z,810.00
2018-05-23T12:17:15.170Z,832.50
2018-05-23T12:18:14.965Z,849.38
2018-05-23T12:20:57.117Z,911.25
2018-05-23T12:21:57.102Z,911.25
2018-05-23T12:22:56.986Z,900.00
2018-05-23T12:23:56.948Z,877.50
2018-05-23T12:24:59.177Z,849.38
2018-05-23T12:25:56.776Z,815.63
2018-05-23T12:26:56.712Z,781.88
2018-05-23T12:27:56.685Z,759.38
2018-05-23T12:28:57.240Z,736.88
2018-05-23T12:29:56.495Z,725.63
2018-05-23T12:30:56.345Z,714.38
2018-05-23T12:31:56.336Z,714.38
2018-05-23T12:32:56.212Z,714.38
2018-05-23T12:33:56.215Z,720.00
2018-05-23T12:34:56.040Z,720.00
2018-05-23T12:35:56.026Z,720.00
2018-05-23T12:36:55.990Z,725.63
2018-05-23T12:37:55.902Z,731.25
2018-05-23T12:38:55.752Z,725.63
2018-05-23T12:39:55.754Z,725.63
2018-05-23T12:40:55.642Z,714.38
2018-05-23T12:41:55.682Z,708.75
2018-05-23T12:42:55.546Z,691.88
2018-05-23T12:43:55.462Z,680.63
2018-05-23T12:44:55.324Z,663.75
2018-05-23T12:45:55.268Z,652.50
2018-05-23T12:46:55.144Z,641.25
2018-05-23T12:47:55.560Z,641.25
2018-05-23T12:48:55.006Z,641.25
2018-05-23T12:49:54.933Z,641.25
2018-05-23T12:50:54.843Z,641.25
2018-05-23T12:51:54.897Z,652.50
2018-05-23T12:52:54.737Z,658.13
2018-05-23T12:53:54.744Z,663.75
2018-05-23T12:54:54.557Z,669.38
2018-05-23T12:55:54.510Z,663.75
2018-05-23T12:56:54.415Z,663.75
2018-05-23T12:59:36.646Z,658.13
2018-05-23T13:00:36.630Z,646.88
2018-05-23T13:01:36.476Z,646.88
2018-05-23T13:02:36.414Z,641.25
2018-05-23T13:03:36.354Z,624.38
2018-05-23T13:04:36.379Z,618.75
2018-05-23T13:05:36.185Z,613.13
2018-05-23T13:06:36.156Z,613.13
2018-05-23T13:07:36.032Z,618.75
2018-05-23T13:08:36.072Z,624.38
2018-05-23T13:09:35.869Z,630.00
2018-05-23T13:10:35.906Z,641.25
2018-05-23T13:11:35.733Z,652.50
2018-05-23T13:12:35.706Z,669.38
2018-05-23T13:13:35.572Z,691.88
2018-05-23T13:14:36.557Z,703.13
2018-05-23T13:15:35.417Z,720.00
2018-05-23T13:18:17.639Z,765.00
2018-05-23T13:19:17.639Z,781.88
2018-05-23T13:20:17.490Z,793.13
2018-05-23T13:21:17.527Z,810.00
2018-05-23T13:22:17.332Z,815.63
2018-05-23T13:23:17.333Z,838.13
2018-05-23T13:24:17.240Z,855.00
2018-05-23T13:25:17.242Z,866.25
2018-05-23T13:26:17.035Z,877.50
2018-05-23T13:28:59.171Z,894.38
2018-05-23T13:30:00.159Z,888.75
2018-05-23T13:30:58.997Z,894.38
2018-05-23T13:31:58.916Z,888.75
2018-05-23T13:32:58.835Z,883.13
2018-05-23T13:35:41.157Z,855.00
2018-05-23T13:36:42.123Z,866.25
2018-05-23T13:37:40.988Z,866.25
2018-05-23T13:38:40.932Z,871.88
2018-05-23T13:39:40.855Z,877.50
2018-05-23T13:40:41.851Z,877.50
2018-05-23T13:41:40.686Z,883.13
2018-05-23T13:42:40.646Z,894.38
2018-05-23T13:43:40.538Z,888.75
2018-05-23T13:44:40.826Z,883.13
2018-05-23T13:45:40.578Z,877.50
2018-05-23T13:46:40.458Z,877.50
2018-05-23T13:47:40.280Z,877.50
2018-05-23T13:48:40.186Z,866.25
2018-05-23T13:49:40.106Z,871.88
2018-05-23T13:50:40.038Z,871.88
2018-05-23T13:51:39.978Z,866.25
2018-05-23T13:54:22.164Z,832.50
2018-05-23T13:55:22.177Z,832.50
2018-05-23T13:56:22.025Z,770.63
2018-05-23T13:59:08.161Z,675.00
2018-05-23T14:01:50.229Z,601.88
2018-05-23T14:02:50.083Z,579.38
2018-05-23T14:03:50.003Z,585.00
2018-05-23T14:04:50.057Z,568.13
2018-05-23T14:05:49.869Z,534.38
2018-05-23T14:06:49.816Z,545.63
2018-05-23T14:07:49.738Z,540.00
2018-05-23T14:08:49.634Z,568.13
2018-05-23T14:09:49.614Z,556.88
2018-05-23T14:10:49.621Z,534.38
2018-05-23T14:11:49.408Z,517.50
2018-05-23T14:12:49.424Z,517.50
2018-05-23T14:13:49.264Z,495.00
2018-05-23T14:14:49.301Z,478.13
2018-05-23T14:15:49.124Z,466.88
2018-05-23T14:16:49.109Z,455.63
2018-05-23T14:17:48.998Z,450.00
2018-05-23T14:18:49.032Z,444.38
2018-05-23T14:19:48.817Z,461.25
2018-05-23T14:20:48.845Z,455.63
2018-05-23T14:21:48.687Z,466.88
2018-05-23T14:22:48.716Z,478.13
2018-05-23T14:23:48.563Z,489.38
2018-05-23T14:26:30.656Z,495.00
2018-05-23T14:27:30.596Z,506.25
2018-05-23T14:28:30.639Z,517.50
2018-05-23T14:29:30.448Z,523.13
2018-05-23T14:30:30.354Z,540.00
2018-05-23T14:33:12.684Z,489.38
2018-05-23T14:34:12.704Z,483.75
2018-05-23T14:35:12.514Z,466.88
2018-05-23T14:36:12.478Z,444.38
2018-05-23T14:37:12.367Z,416.25
2018-05-23T14:38:12.386Z,410.63
2018-05-23T14:39:12.283Z,399.38
2018-05-23T14:40:12.204Z,388.13
2018-05-23T14:41:12.079Z,376.88
2018-05-23T14:42:12.104Z,365.63
2018-05-23T14:43:11.958Z,354.38
2018-05-23T14:44:11.956Z,343.13
2018-05-23T14:45:11.783Z,343.13
2018-05-23T14:46:11.732Z,337.50
2018-05-23T14:47:11.631Z,337.50
2018-05-23T14:48:11.668Z,337.50
2018-05-23T14:49:11.503Z,348.75
2018-05-23T14:50:11.458Z,354.38
2018-05-23T14:51:11.330Z,376.88
2018-05-23T14:53:53.184Z,399.38
2018-05-23T14:54:53.191Z,399.38
2018-05-23T14:55:53.028Z,405.00
2018-05-23T14:58:35.164Z,405.00
2018-05-23T14:59:35.199Z,405.00
2018-05-23T15:00:35.017Z,399.38
2018-05-23T15:01:34.965Z,399.38
2018-05-23T15:02:34.865Z,399.38
2018-05-23T15:05:17.196Z,399.38
2018-05-23T15:06:17.180Z,405.00
2018-05-23T15:07:17.017Z,410.63
2018-05-23T15:08:16.988Z,416.25
2018-05-23T15:09:16.890Z,421.88
2018-05-23T15:10:16.943Z,438.75
2018-05-23T15:11:16.730Z,450.00
2018-05-23T15:12:16.725Z,466.88
2018-05-23T15:13:16.583Z,478.13
2018-05-23T15:14:16.710Z,483.75
2018-05-23T15:15:16.444Z,495.00
2018-05-23T15:16:16.441Z,506.25
2018-05-23T15:17:16.297Z,517.50
2018-05-23T15:18:16.246Z,528.75
2018-05-23T15:19:16.134Z,556.88
2018-05-23T15:20:16.192Z,596.25
2018-05-23T15:21:16.006Z,613.13
2018-05-23T15:23:58.200Z,613.13
2018-05-23T15:24:58.256Z,613.13
2018-05-23T15:25:58.048Z,613.13
2018-05-23T15:26:58.073Z,607.50
2018-05-23T15:27:57.880Z,590.63
2018-05-23T15:28:57.881Z,568.13
2018-05-23T15:29:57.737Z,551.25
2018-05-23T15:30:57.730Z,540.00
2018-05-23T15:31:57.588Z,556.88